Etusivu
METAR-TAF:

METAR-TAF

Lentoasemat :

Bahrainin kansainvälinen lentoasema

Bahrain, Bahrain

Leveyspiiri: 26-16N, Pituuspiiri: 050-39E, korkeus merenpinnasta: 2 m

Tämänhetkinen sää

Tämä raportti tehtiin 13 minuuttia sitten, kello 18.30 UTC
Tuuli 6 kn lännestä, vaihdellen lännen/lounaan ja lännen/luoteen välillä
Lämpötila 30°C
Kosteus 66%
Ilmanpaine 1009 hPa
Näkyvyys: 8000 m

METAR: OBBI 201830Z 28006KT 240V300 8000 NSC 30/23 Q1009 TEMPO 3000 DU

Aika: 21:43 (18:43 UTC)

Sääennuste

Tämä raportti tehtiin 47 minuuttia sitten, kello 17.56 UTC
Ennuste voimassa 20. päivästä klo 18 UTC - 22. päivään klo 00 UTC
Tuuli 5 kn eri suunnista
Näkyvyys: 8000 m
Ajoittain
20. päivästä klo 18 UTC - 21. päivään klo 00 UTC
Tuuli 5 kn eri suunnista puuskistuen 25 kn:hen

TAF: OBBI 201756Z 2018/2200 VRB05KT 8000 NSC TEMPO 2018/2100 VRB05G25KT

Säähavainnot ja -ennusteet yli 4000 lentoasemalta (METAR- ja TAF-raportit).

Käytössä olevat sääasemat on merkitty karttaan keltaisilla ja punaisilla pisteillä.

Aseta hiiri pisteen päälle nähdäksesi sääaseman nimen.

Klikkaa sitten nähdäksesi säähavainnot ja -ennusteet.

Kartan vaihtaminen: klikkaa mustalla rastilla varustettuja vihreitä pisteitä, niin voit zoomata sisään; viivalla varustettua vihreää pistettä, niin voit zoomata ulos tai vihreitä nuolia, niin pääset viereisille kartoille.


METAR-TAF: